createdAt,value
2018-07-23T00:01:58.622Z,9.85
2018-07-23T00:04:27.982Z,8.68
2018-07-23T00:06:56.260Z,8.23
2018-07-23T00:09:24.457Z,9.33
2018-07-23T00:11:52.644Z,9.35
2018-07-23T00:14:20.834Z,9.28
2018-07-23T00:16:49.061Z,9.23
2018-07-23T00:19:17.284Z,9.38
2018-07-23T00:21:45.478Z,13.50
2018-07-23T00:24:13.674Z,11.25
2018-07-23T00:26:41.910Z,11.15
2018-07-23T00:29:10.140Z,11.28
2018-07-23T00:31:38.368Z,11.15
2018-07-23T00:34:06.611Z,12.45
2018-07-23T00:36:34.879Z,13.10
2018-07-23T00:39:03.075Z,13.70
2018-07-23T00:41:31.264Z,13.78
2018-07-23T00:43:59.483Z,13.08
2018-07-23T00:46:27.708Z,13.03
2018-07-23T00:48:55.967Z,14.20
2018-07-23T00:51:24.168Z,12.47
2018-07-23T00:53:52.392Z,11.85
2018-07-23T00:56:20.589Z,13.40
2018-07-23T00:58:48.783Z,11.70
2018-07-23T01:01:22.576Z,14.00
2018-07-23T01:03:50.792Z,12.28
2018-07-23T01:06:19.012Z,14.58
2018-07-23T01:08:47.223Z,15.63
2018-07-23T01:11:15.452Z,15.68
2018-07-23T01:13:43.624Z,17.82
2018-07-23T01:16:11.831Z,19.62
2018-07-23T01:18:39.992Z,15.08
2018-07-23T01:21:08.237Z,17.65
2018-07-23T01:23:36.419Z,22.00
2018-07-23T01:26:04.644Z,17.02
2018-07-23T01:28:32.809Z,20.70
2018-07-23T01:31:01.000Z,18.42
2018-07-23T01:33:29.207Z,23.12
2018-07-23T01:35:57.416Z,20.55
2018-07-23T01:38:25.587Z,23.40
2018-07-23T01:40:53.784Z,22.62
2018-07-23T01:43:21.981Z,23.10
2018-07-23T01:45:50.186Z,21.00
2018-07-23T01:48:18.385Z,18.77
2018-07-23T01:50:46.631Z,22.45
2018-07-23T01:53:14.837Z,22.13
2018-07-23T01:55:43.027Z,23.25
2018-07-23T01:58:11.288Z,22.05
2018-07-23T02:00:39.559Z,23.55
2018-07-23T02:03:07.828Z,25.23
2018-07-23T02:05:36.056Z,21.90
2018-07-23T02:08:04.206Z,22.93
2018-07-23T02:10:32.457Z,19.30
2018-07-23T02:13:00.742Z,21.55
2018-07-23T02:15:28.916Z,19.62
2018-07-23T02:17:57.127Z,20.97
2018-07-23T02:20:25.371Z,23.12
2018-07-23T02:22:53.551Z,23.05
2018-07-23T02:25:21.755Z,23.18
2018-07-23T02:27:49.976Z,22.77
2018-07-23T02:30:18.156Z,24.82
2018-07-23T02:32:46.407Z,23.05
2018-07-23T02:35:14.624Z,23.27
2018-07-23T02:37:42.880Z,20.65
2018-07-23T02:40:11.072Z,22.17
2018-07-23T02:42:39.310Z,27.30
2018-07-23T02:45:07.521Z,24.20
2018-07-23T02:47:35.702Z,22.87
2018-07-23T02:50:03.918Z,24.47
2018-07-23T02:52:32.074Z,25.45
2018-07-23T02:55:00.239Z,24.52
2018-07-23T02:57:28.445Z,22.67
2018-07-23T02:59:56.624Z,23.40
2018-07-23T03:02:24.829Z,23.85
2018-07-23T03:04:53.009Z,24.92
2018-07-23T03:07:21.193Z,23.50
2018-07-23T03:09:49.392Z,23.98
2018-07-23T03:12:17.595Z,23.67
2018-07-23T03:14:45.872Z,22.35
2018-07-23T03:17:14.060Z,27.22
2018-07-23T03:19:42.240Z,26.48
2018-07-23T03:22:10.438Z,25.17
2018-07-23T03:24:38.589Z,26.33
2018-07-23T03:27:06.782Z,24.85
2018-07-23T03:29:34.953Z,24.40
2018-07-23T03:32:03.179Z,26.57
2018-07-23T03:34:31.347Z,25.88
2018-07-23T03:36:59.627Z,23.65
2018-07-23T03:39:27.804Z,23.27
2018-07-23T03:41:56.045Z,23.02
2018-07-23T03:44:24.235Z,27.30
2018-07-23T03:46:52.455Z,25.30
2018-07-23T03:49:20.650Z,27.42
2018-07-23T03:51:48.847Z,26.73
2018-07-23T03:54:17.222Z,29.92
2018-07-23T03:56:45.398Z,26.42
2018-07-23T03:59:13.840Z,26.42
2018-07-23T04:01:42.071Z,27.95
2018-07-23T04:04:10.265Z,28.55
2018-07-23T04:06:38.463Z,27.52
2018-07-23T04:09:08.090Z,26.40
2018-07-23T04:11:36.317Z,28.65
2018-07-23T04:14:04.524Z,25.90
2018-07-23T04:16:32.764Z,25.23
2018-07-23T04:19:00.954Z,24.77
2018-07-23T04:21:29.152Z,25.50
2018-07-23T04:23:57.383Z,26.00
2018-07-23T04:26:25.652Z,25.32
2018-07-23T04:28:54.047Z,23.38
2018-07-23T04:31:22.300Z,23.02
2018-07-23T04:33:50.493Z,23.00
2018-07-23T04:36:18.673Z,23.18
2018-07-23T04:38:46.904Z,21.80
2018-07-23T04:41:15.100Z,24.80
2018-07-23T04:43:43.350Z,22.95
2018-07-23T04:46:11.567Z,23.80
2018-07-23T04:48:39.880Z,24.82
2018-07-23T04:51:08.100Z,23.22
2018-07-23T04:53:36.368Z,24.05
2018-07-23T04:56:04.742Z,23.45
2018-07-23T04:58:33.041Z,22.25
2018-07-23T05:01:01.248Z,20.77
2018-07-23T05:03:29.469Z,21.20
2018-07-23T05:05:57.651Z,18.70
2018-07-23T05:08:25.885Z,19.17
2018-07-23T05:10:54.046Z,20.27
2018-07-23T05:13:22.265Z,19.85
2018-07-23T05:15:50.470Z,19.62
2018-07-23T05:18:18.679Z,17.87
2018-07-23T05:20:46.838Z,18.35
2018-07-23T05:23:15.012Z,17.85
2018-07-23T05:25:43.240Z,17.92
2018-07-23T05:28:11.420Z,14.65
2018-07-23T05:30:39.611Z,15.72
2018-07-23T05:33:07.822Z,14.55
2018-07-23T05:35:36.097Z,12.50
2018-07-23T05:38:04.367Z,11.70
2018-07-23T05:40:32.609Z,11.30
2018-07-23T05:43:00.827Z,10.45
2018-07-23T05:45:29.062Z,10.20
2018-07-23T05:47:57.263Z,8.88
2018-07-23T05:50:25.551Z,9.50
2018-07-23T05:52:53.833Z,8.00
2018-07-23T05:55:21.988Z,8.10
2018-07-23T05:57:50.329Z,7.75
2018-07-23T06:00:18.530Z,8.45
2018-07-23T06:02:47.208Z,6.80
2018-07-23T06:05:15.693Z,7.97
2018-07-23T06:07:44.130Z,7.00
2018-07-23T06:10:19.350Z,8.57
2018-07-23T06:12:50.597Z,6.40
2018-07-23T06:15:29.460Z,8.40
2018-07-23T06:17:59.810Z,6.77
2018-07-23T06:23:19.359Z,7.20
2018-07-23T06:25:53.163Z,8.80
2018-07-23T06:28:21.904Z,7.60
2018-07-23T06:30:55.154Z,5.90
2018-07-23T06:33:25.011Z,6.77
2018-07-23T06:35:54.029Z,5.70
2018-07-23T06:38:22.184Z,6.97
2018-07-23T06:40:50.345Z,5.97
2018-07-23T06:43:18.554Z,5.80
2018-07-23T06:45:46.716Z,7.87
2018-07-23T06:48:14.880Z,6.43
2018-07-23T06:50:43.033Z,6.97
2018-07-23T06:53:11.259Z,6.63
2018-07-23T06:55:39.573Z,6.20
2018-07-23T06:58:07.835Z,6.07
2018-07-23T07:00:36.042Z,5.50
2018-07-23T07:03:05.579Z,6.13
2018-07-23T07:05:33.764Z,5.60
2018-07-23T07:08:01.916Z,6.37
2018-07-23T07:10:30.220Z,5.67
2018-07-23T07:12:58.387Z,6.40
2018-07-23T07:15:26.539Z,5.53
2018-07-23T07:17:54.701Z,5.00
2018-07-23T07:20:22.861Z,5.73
2018-07-23T07:22:51.289Z,5.50
2018-07-23T07:25:19.477Z,6.10
2018-07-23T07:27:47.696Z,6.10
2018-07-23T07:30:15.882Z,6.53
2018-07-23T07:32:44.048Z,5.67
2018-07-23T07:35:12.209Z,6.10
2018-07-23T07:37:40.351Z,4.30
2018-07-23T07:40:09.591Z,4.60
2018-07-23T07:42:37.790Z,5.43
2018-07-23T07:45:06.463Z,5.20
2018-07-23T07:47:34.711Z,5.43
2018-07-23T07:50:02.912Z,4.70
2018-07-23T07:52:31.127Z,4.60
2018-07-23T07:54:59.278Z,4.27
2018-07-23T07:57:27.484Z,4.70
2018-07-23T07:59:55.676Z,3.63
2018-07-23T08:02:23.840Z,3.37
2018-07-23T08:04:52.069Z,3.90
2018-07-23T08:07:20.219Z,3.43
2018-07-23T08:09:48.389Z,3.80
2018-07-23T08:12:16.544Z,3.70
2018-07-23T08:14:44.724Z,4.90
2018-07-23T08:17:12.924Z,4.67
2018-07-23T08:19:41.123Z,4.97
2018-07-23T08:22:09.277Z,4.47
2018-07-23T08:24:37.447Z,5.07
2018-07-23T08:27:06.537Z,5.13
2018-07-23T08:29:34.865Z,5.00
2018-07-23T08:32:03.238Z,4.37
2018-07-23T08:34:31.443Z,4.97
2018-07-23T08:36:59.644Z,6.03
2018-07-23T08:39:27.785Z,4.83
2018-07-23T08:41:55.964Z,4.60
2018-07-23T08:44:24.192Z,4.50
2018-07-23T08:46:52.480Z,4.37
2018-07-23T08:49:20.679Z,5.13
2018-07-23T08:51:48.827Z,5.07
2018-07-23T08:54:16.985Z,5.47
2018-07-23T08:56:45.154Z,5.60
2018-07-23T08:59:13.295Z,6.60
2018-07-23T09:01:41.464Z,5.30
2018-07-23T09:04:09.673Z,5.63
2018-07-23T09:06:37.852Z,5.87
2018-07-23T09:09:07.496Z,4.60
2018-07-23T09:11:35.734Z,4.77
2018-07-23T09:14:03.892Z,6.03
2018-07-23T09:16:32.053Z,6.40
2018-07-23T09:19:00.216Z,5.20
2018-07-23T09:21:28.382Z,5.53
2018-07-23T09:23:56.570Z,5.80
2018-07-23T09:26:24.726Z,5.70
2018-07-23T09:28:52.912Z,4.70
2018-07-23T09:31:21.061Z,6.10
2018-07-23T09:33:49.202Z,5.00
2018-07-23T09:36:17.368Z,5.40
2018-07-23T09:38:45.497Z,5.33
2018-07-23T09:41:13.666Z,4.60
2018-07-23T09:43:41.808Z,5.67
2018-07-23T09:46:10.013Z,5.77
2018-07-23T09:48:38.155Z,5.50
2018-07-23T09:51:06.383Z,6.00
2018-07-23T09:53:34.549Z,5.57
2018-07-23T09:56:02.716Z,7.23
2018-07-23T09:58:30.858Z,5.83
2018-07-23T10:01:04.353Z,5.17
2018-07-23T10:03:32.546Z,3.90
2018-07-23T10:06:00.705Z,5.67
2018-07-23T10:08:28.868Z,4.70
2018-07-23T10:10:57.349Z,5.60
2018-07-23T10:13:25.428Z,5.30
2018-07-23T10:15:53.588Z,4.90
2018-07-23T10:18:21.764Z,5.47
2018-07-23T10:20:49.962Z,5.67
2018-07-23T10:23:18.108Z,4.90
2018-07-23T10:25:46.319Z,6.47
2018-07-23T10:28:14.481Z,5.10
2018-07-23T10:30:42.627Z,6.07
2018-07-23T10:33:10.836Z,5.73
2018-07-23T10:35:38.988Z,5.80
2018-07-23T10:38:07.156Z,4.83
2018-07-23T10:40:35.320Z,5.80
2018-07-23T10:43:03.505Z,5.17
2018-07-23T10:45:31.728Z,5.20
2018-07-23T10:47:59.926Z,4.93
2018-07-23T10:50:28.078Z,4.63
2018-07-23T10:52:56.239Z,4.50
2018-07-23T10:55:24.403Z,6.00
2018-07-23T10:57:52.757Z,4.33
2018-07-23T11:00:20.929Z,4.50
2018-07-23T11:02:49.079Z,5.20
2018-07-23T11:05:17.231Z,5.53
2018-07-23T11:07:45.485Z,5.43
2018-07-23T11:10:13.748Z,5.47
2018-07-23T11:12:41.998Z,5.47
2018-07-23T11:15:10.255Z,6.00
2018-07-23T11:17:38.559Z,4.40
2018-07-23T11:20:08.958Z,4.40
2018-07-23T11:22:37.185Z,4.83
2018-07-23T11:25:38.414Z,5.00
2018-07-23T11:27:33.702Z,4.97
2018-07-23T11:30:01.898Z,4.83
2018-07-23T11:32:30.043Z,5.03
2018-07-23T11:34:58.279Z,4.77
2018-07-23T11:37:26.484Z,3.87
2018-07-23T11:39:54.632Z,5.80
2018-07-23T11:42:22.831Z,3.60
2018-07-23T11:44:51.052Z,4.37
2018-07-23T11:47:19.255Z,5.50
2018-07-23T11:49:47.456Z,5.43
2018-07-23T11:52:15.586Z,4.73
2018-07-23T11:54:43.744Z,5.10
2018-07-23T11:57:12.053Z,5.00
2018-07-23T11:59:40.195Z,5.07
2018-07-23T12:02:08.668Z,4.40
2018-07-23T12:04:37.114Z,4.93
2018-07-23T12:07:05.895Z,3.97
2018-07-23T12:09:34.097Z,4.07
2018-07-23T12:12:02.294Z,5.00
2018-07-23T12:14:30.474Z,4.57
2018-07-23T12:16:58.626Z,3.70
2018-07-23T12:19:26.773Z,3.77
2018-07-23T12:21:54.933Z,5.03
2018-07-23T12:24:23.238Z,5.17
2018-07-23T12:26:51.383Z,5.20
2018-07-23T12:29:19.587Z,4.97
2018-07-23T12:31:48.305Z,4.77
2018-07-23T12:34:16.459Z,4.80
2018-07-23T12:36:44.954Z,4.57
2018-07-23T12:39:13.370Z,4.67
2018-07-23T12:41:41.992Z,3.77
2018-07-23T12:44:10.393Z,4.50
2018-07-23T12:46:38.768Z,4.80
2018-07-23T12:49:07.072Z,4.87
2018-07-23T12:51:35.705Z,5.10
2018-07-23T12:54:04.068Z,5.10
2018-07-23T12:56:32.244Z,4.90
2018-07-23T12:59:04.665Z,4.00
2018-07-23T13:01:33.237Z,3.87
2018-07-23T13:04:01.412Z,4.97
2018-07-23T13:06:29.577Z,5.20
2018-07-23T13:08:57.752Z,4.80
2018-07-23T13:11:25.929Z,4.40
2018-07-23T13:13:54.211Z,4.73
2018-07-23T13:16:22.612Z,5.40
2018-07-23T13:18:50.822Z,4.63
2018-07-23T13:21:18.955Z,4.97
2018-07-23T13:23:47.106Z,4.67
2018-07-23T13:26:15.272Z,4.53
2018-07-23T13:28:43.458Z,4.90
2018-07-23T13:31:11.628Z,5.07
2018-07-23T13:33:39.781Z,4.13
2018-07-23T13:36:07.971Z,4.57
2018-07-23T13:38:36.468Z,4.70
2018-07-23T13:41:04.916Z,5.07
2018-07-23T13:43:33.093Z,4.73
2018-07-23T13:46:01.641Z,5.67
2018-07-23T13:48:29.834Z,4.87
2018-07-23T13:50:58.409Z,4.43
2018-07-23T13:53:26.558Z,4.33
2018-07-23T13:55:54.864Z,4.23
2018-07-23T13:58:23.053Z,4.33
2018-07-23T14:00:51.240Z,4.70
2018-07-23T14:03:19.544Z,4.60
2018-07-23T14:05:47.747Z,4.10
2018-07-23T14:08:16.145Z,4.30
2018-07-23T14:10:44.546Z,3.77
2018-07-23T14:13:16.162Z,4.77
2018-07-23T14:15:44.508Z,4.00
2018-07-23T14:18:12.680Z,4.60
2018-07-23T14:20:41.087Z,4.63
2018-07-23T14:23:09.271Z,4.50
2018-07-23T14:25:37.467Z,5.50
2018-07-23T14:28:05.798Z,5.20
2018-07-23T14:30:34.049Z,4.20
2018-07-23T14:33:02.337Z,4.67
2018-07-23T14:35:30.493Z,5.47
2018-07-23T14:37:58.736Z,4.53
2018-07-23T14:40:27.586Z,5.00
2018-07-23T14:42:56.187Z,4.70
2018-07-23T14:45:24.384Z,4.87
2018-07-23T14:47:52.689Z,5.17
2018-07-23T14:50:22.357Z,6.03
2018-07-23T14:52:50.729Z,4.80
2018-07-23T14:55:19.025Z,4.90
2018-07-23T14:57:47.437Z,5.23
2018-07-23T15:00:15.919Z,4.70
2018-07-23T15:02:47.748Z,5.27
2018-07-23T15:05:15.958Z,5.17
2018-07-23T15:10:35.200Z,4.60
2018-07-23T15:13:03.433Z,4.60
2018-07-23T15:15:31.704Z,5.00
2018-07-23T15:18:01.471Z,5.00
2018-07-23T15:20:29.784Z,4.70
2018-07-23T15:22:58.016Z,5.17
2018-07-23T15:25:26.232Z,5.70
2018-07-23T15:27:54.618Z,5.20
2018-07-23T15:30:22.835Z,5.43
2018-07-23T15:32:51.080Z,4.93
2018-07-23T15:35:19.293Z,4.30
2018-07-23T15:37:47.516Z,5.40
2018-07-23T15:40:16.154Z,5.10
2018-07-23T15:42:44.328Z,5.03
2018-07-23T15:45:12.812Z,4.57
2018-07-23T15:47:40.929Z,5.03
2018-07-23T15:50:09.543Z,5.33
2018-07-23T15:52:38.184Z,5.60
2018-07-23T15:55:06.666Z,5.20
2018-07-23T15:57:34.947Z,4.63
2018-07-23T16:00:03.208Z,4.80
2018-07-23T16:02:31.472Z,6.80
2018-07-23T16:04:59.717Z,6.07
2018-07-23T16:07:27.897Z,5.10
2018-07-23T16:09:56.140Z,6.23
2018-07-23T16:12:24.392Z,5.00
2018-07-23T16:14:52.577Z,4.70
2018-07-23T16:17:20.867Z,5.00
2018-07-23T16:19:49.187Z,4.27
2018-07-23T16:22:17.388Z,4.37
2018-07-23T16:24:45.576Z,4.50
2018-07-23T16:27:13.750Z,4.50
2018-07-23T16:29:45.785Z,4.37
2018-07-23T16:32:14.195Z,4.50
2018-07-23T16:34:42.407Z,4.93
2018-07-23T16:37:10.688Z,5.10
2018-07-23T16:39:39.100Z,4.30
2018-07-23T16:42:07.343Z,4.70
2018-07-23T16:44:35.624Z,4.40
2018-07-23T16:47:03.995Z,5.50
2018-07-23T16:49:32.272Z,4.43
2018-07-23T16:52:00.619Z,4.30
2018-07-23T16:54:28.829Z,4.00
2018-07-23T16:56:56.987Z,4.40
2018-07-23T16:59:25.218Z,5.03
2018-07-23T17:01:53.471Z,4.20
2018-07-23T17:07:13.255Z,4.23
2018-07-23T17:09:44.094Z,4.57
2018-07-23T17:12:12.312Z,4.60
2018-07-23T17:14:40.480Z,4.30
2018-07-23T17:17:08.720Z,4.10
2018-07-23T17:19:36.917Z,4.50
2018-07-23T17:22:05.183Z,4.27
2018-07-23T17:24:33.415Z,4.23
2018-07-23T17:27:02.768Z,4.73
2018-07-23T17:29:31.043Z,4.20
2018-07-23T17:31:59.371Z,4.40
2018-07-23T17:34:27.584Z,4.70
2018-07-23T17:36:55.849Z,4.43
2018-07-23T17:39:24.127Z,4.40
2018-07-23T17:41:52.303Z,3.37
2018-07-23T17:44:20.522Z,4.07
2018-07-23T17:46:48.868Z,5.07
2018-07-23T17:49:17.078Z,4.30
2018-07-23T17:51:45.375Z,4.67
2018-07-23T17:54:13.720Z,3.87
2018-07-23T17:56:45.120Z,4.07
2018-07-23T17:59:13.440Z,3.80
2018-07-23T18:01:41.882Z,4.30
2018-07-23T18:04:10.136Z,3.73
2018-07-23T18:06:38.782Z,3.47
2018-07-23T18:09:09.265Z,4.10
2018-07-23T18:11:38.000Z,4.20
2018-07-23T18:14:06.330Z,4.20
2018-07-23T18:16:34.660Z,4.40
2018-07-23T18:19:03.073Z,4.73
2018-07-23T18:21:31.316Z,4.20
2018-07-23T18:23:59.937Z,4.00
2018-07-23T18:26:28.416Z,3.70
2018-07-23T18:28:56.860Z,5.00
2018-07-23T18:31:25.151Z,3.73
2018-07-23T18:33:53.432Z,3.80
2018-07-23T18:36:21.534Z,4.10
2018-07-23T18:38:50.233Z,3.27
2018-07-23T18:41:18.896Z,4.20
2018-07-23T18:43:48.425Z,2.87
2018-07-23T18:46:17.086Z,3.43
2018-07-23T18:49:24.600Z,3.43
2018-07-23T18:51:53.695Z,4.13
2018-07-23T18:54:22.915Z,4.20
2018-07-23T18:56:52.980Z,3.53
2018-07-23T18:59:21.350Z,3.40
2018-07-23T19:01:50.757Z,3.03
2018-07-23T19:04:19.203Z,4.17
2018-07-23T19:06:47.941Z,3.20
2018-07-23T19:09:17.650Z,3.23
2018-07-23T19:11:47.119Z,3.63
2018-07-23T19:14:15.907Z,3.13
2018-07-23T19:16:44.630Z,3.63
2018-07-23T19:19:13.377Z,3.50
2018-07-23T19:21:41.616Z,3.37
2018-07-23T19:24:10.194Z,3.50
2018-07-23T19:26:38.771Z,3.27
2018-07-23T19:29:07.112Z,4.10
2018-07-23T19:31:35.739Z,3.50
2018-07-23T19:34:04.778Z,3.30
2018-07-23T19:36:33.162Z,3.20
2018-07-23T19:39:01.568Z,3.70
2018-07-23T19:41:30.270Z,3.60
2018-07-23T19:43:58.664Z,2.87
2018-07-23T19:46:27.308Z,3.50
2018-07-23T19:48:55.641Z,3.20
2018-07-23T19:51:23.955Z,3.60
2018-07-23T19:53:52.148Z,3.10
2018-07-23T19:56:20.471Z,3.37
2018-07-23T19:58:48.860Z,3.27
2018-07-23T20:01:18.190Z,3.20
2018-07-23T20:03:46.508Z,4.00
2018-07-23T20:06:15.032Z,3.73
2018-07-23T20:08:43.488Z,3.70
2018-07-23T20:11:11.893Z,3.70
2018-07-23T20:13:40.212Z,3.87
2018-07-23T20:16:08.504Z,3.40
2018-07-23T20:18:36.840Z,4.13
2018-07-23T20:21:05.173Z,3.43
2018-07-23T20:23:33.476Z,3.80
2018-07-23T20:26:01.738Z,4.47
2018-07-23T20:28:30.070Z,4.07
2018-07-23T20:30:58.432Z,4.20
2018-07-23T20:33:26.619Z,4.40
2018-07-23T20:35:54.920Z,4.03
2018-07-23T20:38:23.220Z,3.97
2018-07-23T20:40:51.421Z,3.70
2018-07-23T20:43:19.699Z,4.10
2018-07-23T20:45:47.895Z,3.93
2018-07-23T20:48:16.107Z,3.97
2018-07-23T20:50:44.339Z,4.20
2018-07-23T20:53:12.670Z,4.10
2018-07-23T20:55:40.848Z,4.40
2018-07-23T20:58:09.055Z,3.87
2018-07-23T21:00:37.240Z,3.80
2018-07-23T21:03:06.140Z,4.50
2018-07-23T21:05:34.467Z,4.10
2018-07-23T21:08:02.703Z,4.63
2018-07-23T21:10:30.863Z,4.40
2018-07-23T21:12:59.058Z,4.60
2018-07-23T21:15:28.276Z,4.60
2018-07-23T21:17:56.743Z,3.67
2018-07-23T21:20:25.064Z,4.50
2018-07-23T21:22:53.247Z,4.37
2018-07-23T21:25:21.520Z,4.97
2018-07-23T21:27:49.777Z,3.80
2018-07-23T21:30:17.919Z,4.10
2018-07-23T21:32:46.163Z,4.10
2018-07-23T21:35:14.372Z,4.20
2018-07-23T21:37:42.859Z,4.30
2018-07-23T21:40:11.133Z,3.83
2018-07-23T21:42:39.884Z,4.10
2018-07-23T21:45:08.691Z,4.07
2018-07-23T21:47:37.408Z,4.17
2018-07-23T21:50:05.965Z,4.33
2018-07-23T21:52:36.578Z,4.53
2018-07-23T21:55:05.385Z,4.50
2018-07-23T21:57:33.576Z,4.40
2018-07-23T22:00:01.822Z,5.00
2018-07-23T22:02:30.232Z,4.77
2018-07-23T22:04:58.408Z,5.00
2018-07-23T22:07:26.582Z,4.70
2018-07-23T22:09:54.559Z,4.70
2018-07-23T22:12:22.732Z,5.20
2018-07-23T22:14:50.937Z,4.63
2018-07-23T22:17:19.132Z,5.50
2018-07-23T22:19:47.344Z,5.10
2018-07-23T22:22:15.579Z,5.07
2018-07-23T22:24:43.864Z,4.97
2018-07-23T22:27:12.063Z,4.83
2018-07-23T22:29:40.303Z,4.70
2018-07-23T22:32:08.503Z,4.80
2018-07-23T22:34:36.748Z,4.80
2018-07-23T22:37:04.975Z,5.20
2018-07-23T22:39:33.152Z,5.57
2018-07-23T22:42:01.396Z,5.33
2018-07-23T22:44:29.579Z,5.03
2018-07-23T22:46:57.833Z,5.03
2018-07-23T22:49:26.003Z,5.97
2018-07-23T22:51:54.175Z,5.20
2018-07-23T22:54:22.389Z,5.60
2018-07-23T22:56:50.583Z,6.43
2018-07-23T22:59:18.758Z,5.73
2018-07-23T23:01:46.892Z,6.13
2018-07-23T23:04:15.037Z,5.50
2018-07-23T23:06:43.240Z,5.90
2018-07-23T23:09:11.465Z,5.83
2018-07-23T23:11:39.712Z,6.23
2018-07-23T23:14:07.937Z,5.67
2018-07-23T23:16:36.178Z,6.27
2018-07-23T23:19:04.382Z,5.70
2018-07-23T23:21:32.558Z,6.20
2018-07-23T23:24:00.768Z,5.67
2018-07-23T23:26:28.944Z,6.07
2018-07-23T23:28:56.909Z,5.83
2018-07-23T23:31:25.095Z,6.30
2018-07-23T23:33:53.285Z,5.97
2018-07-23T23:36:21.530Z,5.83
2018-07-23T23:38:49.713Z,6.10
2018-07-23T23:41:17.896Z,5.57
2018-07-23T23:43:46.068Z,5.73
2018-07-23T23:46:14.032Z,5.27
2018-07-23T23:48:42.205Z,6.20
2018-07-23T23:51:10.430Z,6.00
2018-07-23T23:53:38.644Z,6.10
2018-07-23T23:56:06.849Z,5.97
2018-07-23T23:58:35.173Z,6.27
